sensor_id;sensor_type;location;lat;lon;timestamp;temperature;humidity
14985;DHT22;7588;62.368;25.902;2023-05-29T00:00:05;6.50;99.90
14985;DHT22;7588;62.368;25.902;2023-05-29T00:02:33;6.40;99.90
14985;DHT22;7588;62.368;25.902;2023-05-29T00:04:59;6.40;99.90
14985;DHT22;7588;62.368;25.902;2023-05-29T00:07:29;6.30;99.90
14985;DHT22;7588;62.368;25.902;2023-05-29T00:09:55;6.30;99.90
14985;DHT22;7588;62.368;25.902;2023-05-29T00:12:20;6.30;99.90
14985;DHT22;7588;62.368;25.902;2023-05-29T00:14:48;6.20;99.90
14985;DHT22;7588;62.368;25.902;2023-05-29T00:17:14;6.20;99.90
14985;DHT22;7588;62.368;25.902;2023-05-29T00:19:41;6.10;99.90
14985;DHT22;7588;62.368;25.902;2023-05-29T00:22:07;6.20;99.90
14985;DHT22;7588;62.368;25.902;2023-05-29T00:24:32;6.10;99.90
14985;DHT22;7588;62.368;25.902;2023-05-29T00:26:58;6.10;99.90
14985;DHT22;7588;62.368;25.902;2023-05-29T00:29:24;6.00;99.90
14985;DHT22;7588;62.368;25.902;2023-05-29T00:31:50;6.00;99.90
14985;DHT22;7588;62.368;25.902;2023-05-29T00:34:19;6.10;99.90
14985;DHT22;7588;62.368;25.902;2023-05-29T00:36:45;6.10;99.90
14985;DHT22;7588;62.368;25.902;2023-05-29T00:39:11;6.00;99.90
14985;DHT22;7588;62.368;25.902;2023-05-29T00:41:37;6.00;99.90
14985;DHT22;7588;62.368;25.902;2023-05-29T00:44:03;5.90;99.90
14985;DHT22;7588;62.368;25.902;2023-05-29T00:46:30;6.00;99.90
14985;DHT22;7588;62.368;25.902;2023-05-29T00:48:58;5.90;99.90
14985;DHT22;7588;62.368;25.902;2023-05-29T00:51:25;5.90;99.90
14985;DHT22;7588;62.368;25.902;2023-05-29T00:53:52;5.90;99.90
14985;DHT22;7588;62.368;25.902;2023-05-29T00:56:18;5.80;99.90
14985;DHT22;7588;62.368;25.902;2023-05-29T00:58:51;5.80;99.90
14985;DHT22;7588;62.368;25.902;2023-05-29T01:01:19;5.80;99.90
14985;DHT22;7588;62.368;25.902;2023-05-29T01:03:46;5.80;99.90
14985;DHT22;7588;62.368;25.902;2023-05-29T01:06:14;5.80;99.90
14985;DHT22;7588;62.368;25.902;2023-05-29T01:08:40;5.80;99.90
14985;DHT22;7588;62.368;25.902;2023-05-29T01:13:51;5.80;99.90
14985;DHT22;7588;62.368;25.902;2023-05-29T01:16:34;5.80;99.90
14985;DHT22;7588;62.368;25.902;2023-05-29T01:27:00;5.70;99.90
14985;DHT22;7588;62.368;25.902;2023-05-29T01:29:29;5.70;99.90
14985;DHT22;7588;62.368;25.902;2023-05-29T01:31:57;5.80;99.90
14985;DHT22;7588;62.368;25.902;2023-05-29T01:34:23;5.80;99.90
14985;DHT22;7588;62.368;25.902;2023-05-29T01:36:49;5.80;99.90
14985;DHT22;7588;62.368;25.902;2023-05-29T01:39:15;5.70;99.90
14985;DHT22;7588;62.368;25.902;2023-05-29T01:41:43;5.70;99.90
14985;DHT22;7588;62.368;25.902;2023-05-29T01:44:10;5.70;99.90
14985;DHT22;7588;62.368;25.902;2023-05-29T01:46:40;5.70;99.90
14985;DHT22;7588;62.368;25.902;2023-05-29T01:49:07;5.70;99.90
14985;DHT22;7588;62.368;25.902;2023-05-29T01:51:33;5.60;99.90
14985;DHT22;7588;62.368;25.902;2023-05-29T01:53:59;5.70;99.90
14985;DHT22;7588;62.368;25.902;2023-05-29T01:56:26;5.60;99.90
14985;DHT22;7588;62.368;25.902;2023-05-29T01:58:54;5.60;99.90
14985;DHT22;7588;62.368;25.902;2023-05-29T02:01:21;5.60;99.90
14985;DHT22;7588;62.368;25.902;2023-05-29T02:03:47;5.50;99.90
14985;DHT22;7588;62.368;25.902;2023-05-29T02:06:13;5.50;99.90
14985;DHT22;7588;62.368;25.902;2023-05-29T02:08:38;5.50;99.90
14985;DHT22;7588;62.368;25.902;2023-05-29T02:11:04;5.50;99.90
14985;DHT22;7588;62.368;25.902;2023-05-29T02:13:31;5.60;99.90
14985;DHT22;7588;62.368;25.902;2023-05-29T02:15:56;5.50;99.90
14985;DHT22;7588;62.368;25.902;2023-05-29T02:18:22;5.60;99.90
14985;DHT22;7588;62.368;25.902;2023-05-29T02:20:48;5.60;99.90
14985;DHT22;7588;62.368;25.902;2023-05-29T02:23:13;5.60;99.90
14985;DHT22;7588;62.368;25.902;2023-05-29T02:25:41;5.60;99.90
14985;DHT22;7588;62.368;25.902;2023-05-29T02:28:06;5.70;99.90
14985;DHT22;7588;62.368;25.902;2023-05-29T02:30:33;5.70;99.90
14985;DHT22;7588;62.368;25.902;2023-05-29T02:32:58;5.70;99.90
14985;DHT22;7588;62.368;25.902;2023-05-29T02:35:24;5.80;99.90
14985;DHT22;7588;62.368;25.902;2023-05-29T02:37:50;5.90;99.90
14985;DHT22;7588;62.368;25.902;2023-05-29T02:40:16;6.00;99.90
14985;DHT22;7588;62.368;25.902;2023-05-29T02:42:43;6.00;99.90
14985;DHT22;7588;62.368;25.902;2023-05-29T02:45:09;5.90;99.90
14985;DHT22;7588;62.368;25.902;2023-05-29T02:47:35;6.00;99.90
14985;DHT22;7588;62.368;25.902;2023-05-29T02:50:01;6.00;99.90
14985;DHT22;7588;62.368;25.902;2023-05-29T02:52:27;6.00;99.90
14985;DHT22;7588;62.368;25.902;2023-05-29T02:54:53;6.10;99.90
14985;DHT22;7588;62.368;25.902;2023-05-29T02:57:22;6.10;99.90
14985;DHT22;7588;62.368;25.902;2023-05-29T02:59:48;6.20;99.90
14985;DHT22;7588;62.368;25.902;2023-05-29T03:02:14;6.10;99.90
14985;DHT22;7588;62.368;25.902;2023-05-29T03:04:40;6.10;99.90
14985;DHT22;7588;62.368;25.902;2023-05-29T03:07:06;6.10;99.90
14985;DHT22;7588;62.368;25.902;2023-05-29T03:09:32;6.00;99.90
14985;DHT22;7588;62.368;25.902;2023-05-29T03:11:58;6.00;99.90
14985;DHT22;7588;62.368;25.902;2023-05-29T03:14:26;6.00;99.90
14985;DHT22;7588;62.368;25.902;2023-05-29T03:16:53;5.90;99.90
14985;DHT22;7588;62.368;25.902;2023-05-29T03:19:19;5.90;99.90
14985;DHT22;7588;62.368;25.902;2023-05-29T03:21:44;6.00;99.90
14985;DHT22;7588;62.368;25.902;2023-05-29T03:24:10;6.00;99.90
14985;DHT22;7588;62.368;25.902;2023-05-29T03:26:36;6.10;99.90
14985;DHT22;7588;62.368;25.902;2023-05-29T03:29:03;6.10;99.90
14985;DHT22;7588;62.368;25.902;2023-05-29T03:31:28;6.20;99.90
14985;DHT22;7588;62.368;25.902;2023-05-29T03:33:54;6.20;99.90
14985;DHT22;7588;62.368;25.902;2023-05-29T03:36:20;6.20;99.90
14985;DHT22;7588;62.368;25.902;2023-05-29T03:38:45;6.20;99.90
14985;DHT22;7588;62.368;25.902;2023-05-29T03:41:11;6.30;99.90
14985;DHT22;7588;62.368;25.902;2023-05-29T03:43:37;6.30;99.90
14985;DHT22;7588;62.368;25.902;2023-05-29T03:46:03;6.40;99.90
14985;DHT22;7588;62.368;25.902;2023-05-29T03:48:29;6.50;99.90
14985;DHT22;7588;62.368;25.902;2023-05-29T03:50:54;6.50;99.90
14985;DHT22;7588;62.368;25.902;2023-05-29T03:53:20;6.60;99.90
14985;DHT22;7588;62.368;25.902;2023-05-29T03:55:46;6.60;99.90
14985;DHT22;7588;62.368;25.902;2023-05-29T03:58:11;6.60;99.90
14985;DHT22;7588;62.368;25.902;2023-05-29T04:00:38;6.60;99.90
14985;DHT22;7588;62.368;25.902;2023-05-29T04:03:03;6.60;99.90
14985;DHT22;7588;62.368;25.902;2023-05-29T04:05:29;6.60;99.90
14985;DHT22;7588;62.368;25.902;2023-05-29T04:07:56;6.70;99.90
14985;DHT22;7588;62.368;25.902;2023-05-29T04:10:21;6.70;99.90
14985;DHT22;7588;62.368;25.902;2023-05-29T04:12:48;6.80;99.90
14985;DHT22;7588;62.368;25.902;2023-05-29T04:15:14;6.90;99.90
14985;DHT22;7588;62.368;25.902;2023-05-29T04:17:39;7.00;99.90
14985;DHT22;7588;62.368;25.902;2023-05-29T04:20:05;7.10;99.90
14985;DHT22;7588;62.368;25.902;2023-05-29T04:22:37;7.20;99.90
14985;DHT22;7588;62.368;25.902;2023-05-29T04:25:06;7.30;99.90
14985;DHT22;7588;62.368;25.902;2023-05-29T04:27:32;7.40;99.90
14985;DHT22;7588;62.368;25.902;2023-05-29T04:30:03;7.80;99.90
14985;DHT22;7588;62.368;25.902;2023-05-29T04:32:30;8.40;99.90
14985;DHT22;7588;62.368;25.902;2023-05-29T04:34:55;9.60;99.90
14985;DHT22;7588;62.368;25.902;2023-05-29T04:37:21;10.20;99.90
14985;DHT22;7588;62.368;25.902;2023-05-29T04:39:55;10.90;99.90
14985;DHT22;7588;62.368;25.902;2023-05-29T04:42:22;12.10;99.90
14985;DHT22;7588;62.368;25.902;2023-05-29T04:44:48;12.90;99.90
14985;DHT22;7588;62.368;25.902;2023-05-29T04:47:15;13.30;99.90
14985;DHT22;7588;62.368;25.902;2023-05-29T04:49:41;13.80;99.90
14985;DHT22;7588;62.368;25.902;2023-05-29T04:52:07;13.80;98.70
14985;DHT22;7588;62.368;25.902;2023-05-29T04:54:33;14.10;96.80
14985;DHT22;7588;62.368;25.902;2023-05-29T04:57:00;14.60;96.70
14985;DHT22;7588;62.368;25.902;2023-05-29T04:59:26;14.90;95.90
14985;DHT22;7588;62.368;25.902;2023-05-29T05:01:52;15.30;94.50
14985;DHT22;7588;62.368;25.902;2023-05-29T05:04:17;15.50;92.70
14985;DHT22;7588;62.368;25.902;2023-05-29T05:06:43;15.30;93.60
14985;DHT22;7588;62.368;25.902;2023-05-29T05:09:10;15.50;92.60
14985;DHT22;7588;62.368;25.902;2023-05-29T05:11:36;15.80;91.40
14985;DHT22;7588;62.368;25.902;2023-05-29T05:14:02;15.30;90.50
14985;DHT22;7588;62.368;25.902;2023-05-29T05:16:27;15.20;91.40
14985;DHT22;7588;62.368;25.902;2023-05-29T05:18:53;15.00;92.50
14985;DHT22;7588;62.368;25.902;2023-05-29T05:21:19;15.40;90.60
14985;DHT22;7588;62.368;25.902;2023-05-29T05:23:45;15.50;85.70
14985;DHT22;7588;62.368;25.902;2023-05-29T05:26:11;15.50;82.90
14985;DHT22;7588;62.368;25.902;2023-05-29T05:28:37;15.00;87.00
14985;DHT22;7588;62.368;25.902;2023-05-29T05:31:02;15.10;90.20
14985;DHT22;7588;62.368;25.902;2023-05-29T05:33:28;15.90;82.00
14985;DHT22;7588;62.368;25.902;2023-05-29T05:35:53;15.90;85.20
14985;DHT22;7588;62.368;25.902;2023-05-29T05:38:19;16.00;82.50
14985;DHT22;7588;62.368;25.902;2023-05-29T05:40:45;15.70;83.90
14985;DHT22;7588;62.368;25.902;2023-05-29T05:43:11;15.70;83.30
14985;DHT22;7588;62.368;25.902;2023-05-29T05:45:36;15.60;87.30
14985;DHT22;7588;62.368;25.902;2023-05-29T05:48:07;15.80;87.00
14985;DHT22;7588;62.368;25.902;2023-05-29T05:50:33;15.60;86.80
14985;DHT22;7588;62.368;25.902;2023-05-29T05:52:59;15.10;90.10
14985;DHT22;7588;62.368;25.902;2023-05-29T05:55:25;15.20;90.70
14985;DHT22;7588;62.368;25.902;2023-05-29T05:57:53;14.60;90.20
14985;DHT22;7588;62.368;25.902;2023-05-29T06:00:19;14.60;89.30
14985;DHT22;7588;62.368;25.902;2023-05-29T06:02:45;14.60;88.70
14985;DHT22;7588;62.368;25.902;2023-05-29T06:05:11;15.00;86.10
14985;DHT22;7588;62.368;25.902;2023-05-29T06:07:37;15.20;85.50
14985;DHT22;7588;62.368;25.902;2023-05-29T06:10:04;15.00;89.00
14985;DHT22;7588;62.368;25.902;2023-05-29T06:12:30;14.40;90.30
14985;DHT22;7588;62.368;25.902;2023-05-29T06:14:55;14.60;88.40
14985;DHT22;7588;62.368;25.902;2023-05-29T06:17:22;15.10;86.80
14985;DHT22;7588;62.368;25.902;2023-05-29T06:19:48;14.70;87.70
14985;DHT22;7588;62.368;25.902;2023-05-29T06:22:17;14.30;91.60
14985;DHT22;7588;62.368;25.902;2023-05-29T06:24:42;14.60;90.80
14985;DHT22;7588;62.368;25.902;2023-05-29T06:27:08;14.30;91.80
14985;DHT22;7588;62.368;25.902;2023-05-29T06:29:34;14.50;90.20
14985;DHT22;7588;62.368;25.902;2023-05-29T06:32:00;14.80;86.70
14985;DHT22;7588;62.368;25.902;2023-05-29T06:34:26;14.90;86.20
14985;DHT22;7588;62.368;25.902;2023-05-29T06:36:52;14.40;88.20
14985;DHT22;7588;62.368;25.902;2023-05-29T06:39:18;14.40;87.60
14985;DHT22;7588;62.368;25.902;2023-05-29T06:41:45;14.70;88.00
14985;DHT22;7588;62.368;25.902;2023-05-29T06:44:11;14.60;89.10
14985;DHT22;7588;62.368;25.902;2023-05-29T06:46:37;13.80;90.10
14985;DHT22;7588;62.368;25.902;2023-05-29T06:49:03;13.50;91.70
14985;DHT22;7588;62.368;25.902;2023-05-29T06:51:28;13.00;92.20
14985;DHT22;7588;62.368;25.902;2023-05-29T06:53:54;12.50;93.50
14985;DHT22;7588;62.368;25.902;2023-05-29T06:56:20;12.00;94.20
14985;DHT22;7588;62.368;25.902;2023-05-29T06:58:46;12.10;95.10
14985;DHT22;7588;62.368;25.902;2023-05-29T07:04:15;12.70;92.70
14985;DHT22;7588;62.368;25.902;2023-05-29T07:06:41;12.70;93.70
14985;DHT22;7588;62.368;25.902;2023-05-29T07:09:07;12.80;94.10
14985;DHT22;7588;62.368;25.902;2023-05-29T07:11:32;12.50;94.80
14985;DHT22;7588;62.368;25.902;2023-05-29T07:13:58;12.10;94.70
14985;DHT22;7588;62.368;25.902;2023-05-29T07:16:25;11.80;95.70
14985;DHT22;7588;62.368;25.902;2023-05-29T07:18:51;11.60;96.40
14985;DHT22;7588;62.368;25.902;2023-05-29T07:21:17;11.50;94.90
14985;DHT22;7588;62.368;25.902;2023-05-29T07:23:44;11.50;96.40
14985;DHT22;7588;62.368;25.902;2023-05-29T07:26:09;11.90;99.30
14985;DHT22;7588;62.368;25.902;2023-05-29T07:28:35;12.20;95.70
14985;DHT22;7588;62.368;25.902;2023-05-29T07:31:01;12.10;95.20
14985;DHT22;7588;62.368;25.902;2023-05-29T07:33:26;12.00;96.20
14985;DHT22;7588;62.368;25.902;2023-05-29T07:35:52;12.00;96.70
14985;DHT22;7588;62.368;25.902;2023-05-29T07:38:18;11.90;96.70
14985;DHT22;7588;62.368;25.902;2023-05-29T07:40:44;11.50;94.40
14985;DHT22;7588;62.368;25.902;2023-05-29T07:43:10;11.50;95.30
14985;DHT22;7588;62.368;25.902;2023-05-29T07:45:35;12.20;97.30
14985;DHT22;7588;62.368;25.902;2023-05-29T07:48:01;12.60;96.00
14985;DHT22;7588;62.368;25.902;2023-05-29T07:50:27;12.50;93.90
14985;DHT22;7588;62.368;25.902;2023-05-29T07:52:53;12.30;93.80
14985;DHT22;7588;62.368;25.902;2023-05-29T07:55:18;12.10;94.00
14985;DHT22;7588;62.368;25.902;2023-05-29T07:57:44;12.10;94.60
14985;DHT22;7588;62.368;25.902;2023-05-29T08:00:10;12.00;94.10
14985;DHT22;7588;62.368;25.902;2023-05-29T08:02:37;11.90;94.40
14985;DHT22;7588;62.368;25.902;2023-05-29T08:05:04;11.60;94.50
14985;DHT22;7588;62.368;25.902;2023-05-29T08:07:30;11.60;95.30
14985;DHT22;7588;62.368;25.902;2023-05-29T08:09:56;11.70;95.60
14985;DHT22;7588;62.368;25.902;2023-05-29T08:12:21;11.90;97.90
14985;DHT22;7588;62.368;25.902;2023-05-29T08:14:47;12.00;94.80
14985;DHT22;7588;62.368;25.902;2023-05-29T08:17:12;12.10;93.90
14985;DHT22;7588;62.368;25.902;2023-05-29T08:19:38;11.80;95.80
14985;DHT22;7588;62.368;25.902;2023-05-29T08:22:04;11.70;96.10
14985;DHT22;7588;62.368;25.902;2023-05-29T08:24:29;11.70;94.80
14985;DHT22;7588;62.368;25.902;2023-05-29T08:26:55;12.30;94.70
14985;DHT22;7588;62.368;25.902;2023-05-29T08:29:21;13.00;93.90
14985;DHT22;7588;62.368;25.902;2023-05-29T08:31:47;13.40;92.30
14985;DHT22;7588;62.368;25.902;2023-05-29T08:34:13;13.70;91.20
14985;DHT22;7588;62.368;25.902;2023-05-29T08:36:39;13.50;91.70
14985;DHT22;7588;62.368;25.902;2023-05-29T08:39:06;13.40;93.20
14985;DHT22;7588;62.368;25.902;2023-05-29T08:44:07;12.50;91.70
14985;DHT22;7588;62.368;25.902;2023-05-29T08:46:38;12.30;91.90
14985;DHT22;7588;62.368;25.902;2023-05-29T08:49:07;12.60;92.30
14985;DHT22;7588;62.368;25.902;2023-05-29T08:51:37;12.90;90.90
14985;DHT22;7588;62.368;25.902;2023-05-29T08:54:03;13.10;91.50
14985;DHT22;7588;62.368;25.902;2023-05-29T08:56:29;13.50;90.00
14985;DHT22;7588;62.368;25.902;2023-05-29T08:58:56;14.10;87.00
14985;DHT22;7588;62.368;25.902;2023-05-29T09:01:23;14.80;90.30
14985;DHT22;7588;62.368;25.902;2023-05-29T09:03:50;15.10;89.50
14985;DHT22;7588;62.368;25.902;2023-05-29T09:06:16;15.20;86.40
14985;DHT22;7588;62.368;25.902;2023-05-29T09:08:43;14.90;83.60
14985;DHT22;7588;62.368;25.902;2023-05-29T09:11:09;14.70;81.20
14985;DHT22;7588;62.368;25.902;2023-05-29T09:13:35;14.40;86.80
14985;DHT22;7588;62.368;25.902;2023-05-29T09:16:01;14.30;87.60
14985;DHT22;7588;62.368;25.902;2023-05-29T09:18:31;14.20;90.50
14985;DHT22;7588;62.368;25.902;2023-05-29T09:20:57;14.10;87.90
14985;DHT22;7588;62.368;25.902;2023-05-29T09:23:25;14.30;91.60
14985;DHT22;7588;62.368;25.902;2023-05-29T09:25:53;14.60;82.40
14985;DHT22;7588;62.368;25.902;2023-05-29T09:28:21;14.90;79.30
14985;DHT22;7588;62.368;25.902;2023-05-29T09:30:49;14.40;81.70
14985;DHT22;7588;62.368;25.902;2023-05-29T09:33:15;13.90;84.50
14985;DHT22;7588;62.368;25.902;2023-05-29T09:35:46;13.40;86.30
14985;DHT22;7588;62.368;25.902;2023-05-29T09:38:16;13.30;87.80
14985;DHT22;7588;62.368;25.902;2023-05-29T09:40:43;13.80;92.20
14985;DHT22;7588;62.368;25.902;2023-05-29T09:43:17;14.30;84.80
14985;DHT22;7588;62.368;25.902;2023-05-29T09:45:47;14.60;88.30
14985;DHT22;7588;62.368;25.902;2023-05-29T09:48:23;14.90;83.10
14985;DHT22;7588;62.368;25.902;2023-05-29T09:50:49;15.20;80.70
14985;DHT22;7588;62.368;25.902;2023-05-29T09:53:23;15.30;74.90
14985;DHT22;7588;62.368;25.902;2023-05-29T09:55:53;15.20;81.50
14985;DHT22;7588;62.368;25.902;2023-05-29T09:58:24;14.80;76.50
14985;DHT22;7588;62.368;25.902;2023-05-29T10:00:51;14.50;84.00
14985;DHT22;7588;62.368;25.902;2023-05-29T10:03:18;15.10;85.10
14985;DHT22;7588;62.368;25.902;2023-05-29T10:05:49;16.10;79.40
14985;DHT22;7588;62.368;25.902;2023-05-29T10:08:18;16.40;72.70
14985;DHT22;7588;62.368;25.902;2023-05-29T10:10:46;16.10;76.00
14985;DHT22;7588;62.368;25.902;2023-05-29T10:13:14;15.40;74.80
14985;DHT22;7588;62.368;25.902;2023-05-29T10:15:43;15.30;80.20
14985;DHT22;7588;62.368;25.902;2023-05-29T10:18:20;15.60;81.50
14985;DHT22;7588;62.368;25.902;2023-05-29T10:20:51;15.80;72.00
14985;DHT22;7588;62.368;25.902;2023-05-29T10:23:36;15.70;71.40
14985;DHT22;7588;62.368;25.902;2023-05-29T10:26:31;15.70;72.30
14985;DHT22;7588;62.368;25.902;2023-05-29T10:29:12;16.20;75.70
14985;DHT22;7588;62.368;25.902;2023-05-29T10:34:28;16.00;69.80
14985;DHT22;7588;62.368;25.902;2023-05-29T10:37:15;16.10;67.10
14985;DHT22;7588;62.368;25.902;2023-05-29T10:39:43;15.80;72.60
14985;DHT22;7588;62.368;25.902;2023-05-29T10:42:50;16.50;70.40
14985;DHT22;7588;62.368;25.902;2023-05-29T10:47:55;17.80;62.80
14985;DHT22;7588;62.368;25.902;2023-05-29T10:50:43;18.30;65.30
14985;DHT22;7588;62.368;25.902;2023-05-29T10:53:14;18.70;63.20
14985;DHT22;7588;62.368;25.902;2023-05-29T10:55:41;19.10;66.80
14985;DHT22;7588;62.368;25.902;2023-05-29T10:58:23;18.10;63.40
14985;DHT22;7588;62.368;25.902;2023-05-29T11:00:50;16.70;60.30
14985;DHT22;7588;62.368;25.902;2023-05-29T11:06:00;15.60;65.30
14985;DHT22;7588;62.368;25.902;2023-05-29T11:13:56;15.30;63.80
14985;DHT22;7588;62.368;25.902;2023-05-29T11:18:52;15.10;65.50
14985;DHT22;7588;62.368;25.902;2023-05-29T11:24:23;14.80;66.10
14985;DHT22;7588;62.368;25.902;2023-05-29T11:26:51;14.70;66.80
14985;DHT22;7588;62.368;25.902;2023-05-29T11:29:28;15.00;69.50
14985;DHT22;7588;62.368;25.902;2023-05-29T11:31:58;15.50;67.80
14985;DHT22;7588;62.368;25.902;2023-05-29T11:34:28;16.20;63.90
14985;DHT22;7588;62.368;25.902;2023-05-29T11:36:59;16.80;64.50
14985;DHT22;7588;62.368;25.902;2023-05-29T11:39:26;17.00;59.20
14985;DHT22;7588;62.368;25.902;2023-05-29T11:41:54;17.00;58.10
14985;DHT22;7588;62.368;25.902;2023-05-29T11:44:23;17.00;61.80
14985;DHT22;7588;62.368;25.902;2023-05-29T11:47:00;16.80;61.30
14985;DHT22;7588;62.368;25.902;2023-05-29T11:49:31;16.00;64.10
14985;DHT22;7588;62.368;25.902;2023-05-29T11:52:12;15.60;62.30
14985;DHT22;7588;62.368;25.902;2023-05-29T11:54:39;15.20;59.40
14985;DHT22;7588;62.368;25.902;2023-05-29T11:57:05;15.00;62.80
14985;DHT22;7588;62.368;25.902;2023-05-29T11:59:32;14.60;60.60
14985;DHT22;7588;62.368;25.902;2023-05-29T12:01:59;14.30;61.00
14985;DHT22;7588;62.368;25.902;2023-05-29T12:04:24;14.10;64.00
14985;DHT22;7588;62.368;25.902;2023-05-29T12:06:50;13.90;61.50
14985;DHT22;7588;62.368;25.902;2023-05-29T12:09:29;13.90;63.70
14985;DHT22;7588;62.368;25.902;2023-05-29T12:12:02;14.00;65.70
14985;DHT22;7588;62.368;25.902;2023-05-29T12:14:28;13.90;68.80
14985;DHT22;7588;62.368;25.902;2023-05-29T12:16:54;13.80;67.70
14985;DHT22;7588;62.368;25.902;2023-05-29T12:19:20;13.70;69.50
14985;DHT22;7588;62.368;25.902;2023-05-29T12:21:45;13.80;71.40
14985;DHT22;7588;62.368;25.902;2023-05-29T12:24:11;14.30;68.40
14985;DHT22;7588;62.368;25.902;2023-05-29T12:26:37;14.70;68.70
14985;DHT22;7588;62.368;25.902;2023-05-29T12:29:03;14.70;67.80
14985;DHT22;7588;62.368;25.902;2023-05-29T12:31:31;14.50;69.90
14985;DHT22;7588;62.368;25.902;2023-05-29T12:34:08;14.20;66.30
14985;DHT22;7588;62.368;25.902;2023-05-29T12:36:35;13.90;64.70
14985;DHT22;7588;62.368;25.902;2023-05-29T12:39:06;13.90;67.20
14985;DHT22;7588;62.368;25.902;2023-05-29T12:41:34;14.00;67.10
14985;DHT22;7588;62.368;25.902;2023-05-29T12:44:03;14.70;70.30
14985;DHT22;7588;62.368;25.902;2023-05-29T12:46:38;15.70;69.30
14985;DHT22;7588;62.368;25.902;2023-05-29T12:49:14;16.00;64.60
14985;DHT22;7588;62.368;25.902;2023-05-29T12:51:41;16.30;60.40
14985;DHT22;7588;62.368;25.902;2023-05-29T12:54:10;16.90;64.00
14985;DHT22;7588;62.368;25.902;2023-05-29T12:56:35;16.90;59.60
14985;DHT22;7588;62.368;25.902;2023-05-29T12:59:01;16.20;56.50
14985;DHT22;7588;62.368;25.902;2023-05-29T13:01:27;15.50;57.00
14985;DHT22;7588;62.368;25.902;2023-05-29T13:03:52;15.10;57.10
14985;DHT22;7588;62.368;25.902;2023-05-29T13:06:18;14.90;58.60
14985;DHT22;7588;62.368;25.902;2023-05-29T13:08:44;14.60;60.50
14985;DHT22;7588;62.368;25.902;2023-05-29T13:11:09;14.70;59.60
14985;DHT22;7588;62.368;25.902;2023-05-29T13:13:35;14.60;59.80
14985;DHT22;7588;62.368;25.902;2023-05-29T13:16:01;14.60;63.80
14985;DHT22;7588;62.368;25.902;2023-05-29T13:18:26;14.40;62.00
14985;DHT22;7588;62.368;25.902;2023-05-29T13:20:52;14.40;63.60
14985;DHT22;7588;62.368;25.902;2023-05-29T13:23:18;14.50;61.20
14985;DHT22;7588;62.368;25.902;2023-05-29T13:25:43;14.60;61.00
14985;DHT22;7588;62.368;25.902;2023-05-29T13:28:11;14.70;63.20
14985;DHT22;7588;62.368;25.902;2023-05-29T13:30:36;14.70;62.50
14985;DHT22;7588;62.368;25.902;2023-05-29T13:33:02;14.70;63.00
14985;DHT22;7588;62.368;25.902;2023-05-29T13:35:28;14.70;63.50
14985;DHT22;7588;62.368;25.902;2023-05-29T13:37:53;14.70;61.60
14985;DHT22;7588;62.368;25.902;2023-05-29T13:40:19;14.80;59.60
14985;DHT22;7588;62.368;25.902;2023-05-29T13:42:44;14.80;60.50
14985;DHT22;7588;62.368;25.902;2023-05-29T13:45:10;14.90;61.70
14985;DHT22;7588;62.368;25.902;2023-05-29T13:47:37;14.90;60.90
14985;DHT22;7588;62.368;25.902;2023-05-29T13:50:03;14.70;61.90
14985;DHT22;7588;62.368;25.902;2023-05-29T13:52:29;14.70;63.40
14985;DHT22;7588;62.368;25.902;2023-05-29T13:54:55;15.00;59.80
14985;DHT22;7588;62.368;25.902;2023-05-29T13:57:23;14.90;59.30
14985;DHT22;7588;62.368;25.902;2023-05-29T13:59:49;14.70;59.70
14985;DHT22;7588;62.368;25.902;2023-05-29T14:02:15;14.70;58.70
14985;DHT22;7588;62.368;25.902;2023-05-29T14:04:41;14.70;60.10
14985;DHT22;7588;62.368;25.902;2023-05-29T14:07:08;14.70;59.60
14985;DHT22;7588;62.368;25.902;2023-05-29T14:09:33;14.70;59.10
14985;DHT22;7588;62.368;25.902;2023-05-29T14:12:00;14.50;59.00
14985;DHT22;7588;62.368;25.902;2023-05-29T14:14:26;14.30;59.70
14985;DHT22;7588;62.368;25.902;2023-05-29T14:16:52;14.20;63.00
14985;DHT22;7588;62.368;25.902;2023-05-29T14:19:19;14.10;61.80
14985;DHT22;7588;62.368;25.902;2023-05-29T14:21:45;14.00;63.60
14985;DHT22;7588;62.368;25.902;2023-05-29T14:24:12;13.90;62.70
14985;DHT22;7588;62.368;25.902;2023-05-29T14:26:38;13.90;62.80
14985;DHT22;7588;62.368;25.902;2023-05-29T14:29:04;13.80;61.60
14985;DHT22;7588;62.368;25.902;2023-05-29T14:31:30;13.80;62.50
14985;DHT22;7588;62.368;25.902;2023-05-29T14:33:56;13.70;67.70
14985;DHT22;7588;62.368;25.902;2023-05-29T14:36:21;13.50;64.60
14985;DHT22;7588;62.368;25.902;2023-05-29T14:38:47;13.50;66.00
14985;DHT22;7588;62.368;25.902;2023-05-29T14:41:14;13.50;66.10
14985;DHT22;7588;62.368;25.902;2023-05-29T14:43:42;13.40;66.80
14985;DHT22;7588;62.368;25.902;2023-05-29T14:46:08;13.30;62.70
14985;DHT22;7588;62.368;25.902;2023-05-29T14:48:34;13.20;65.50
14985;DHT22;7588;62.368;25.902;2023-05-29T14:51:00;13.10;64.70
14985;DHT22;7588;62.368;25.902;2023-05-29T14:53:26;13.20;66.90
14985;DHT22;7588;62.368;25.902;2023-05-29T14:55:52;13.20;65.20
14985;DHT22;7588;62.368;25.902;2023-05-29T14:58:18;13.20;65.60
14985;DHT22;7588;62.368;25.902;2023-05-29T15:00:44;13.40;67.20
14985;DHT22;7588;62.368;25.902;2023-05-29T15:03:10;13.50;64.80
14985;DHT22;7588;62.368;25.902;2023-05-29T15:05:36;13.70;66.80
14985;DHT22;7588;62.368;25.902;2023-05-29T15:08:02;13.80;64.60
14985;DHT22;7588;62.368;25.902;2023-05-29T15:10:27;13.90;64.30
14985;DHT22;7588;62.368;25.902;2023-05-29T15:12:54;13.90;65.50
14985;DHT22;7588;62.368;25.902;2023-05-29T15:15:28;13.80;63.70
14985;DHT22;7588;62.368;25.902;2023-05-29T15:17:55;13.70;62.40
14985;DHT22;7588;62.368;25.902;2023-05-29T15:20:22;13.60;63.70
14985;DHT22;7588;62.368;25.902;2023-05-29T15:22:48;13.60;66.60
14985;DHT22;7588;62.368;25.902;2023-05-29T15:25:15;13.50;68.50
14985;DHT22;7588;62.368;25.902;2023-05-29T15:27:41;13.60;68.70
14985;DHT22;7588;62.368;25.902;2023-05-29T15:30:17;13.70;66.30
14985;DHT22;7588;62.368;25.902;2023-05-29T15:32:44;13.70;66.40
14985;DHT22;7588;62.368;25.902;2023-05-29T15:35:12;13.50;66.20
14985;DHT22;7588;62.368;25.902;2023-05-29T15:37:38;13.40;68.10
14985;DHT22;7588;62.368;25.902;2023-05-29T15:40:05;13.30;65.80
14985;DHT22;7588;62.368;25.902;2023-05-29T15:42:31;13.20;64.90
14985;DHT22;7588;62.368;25.902;2023-05-29T15:44:57;13.20;66.40
14985;DHT22;7588;62.368;25.902;2023-05-29T15:47:23;13.20;67.90
14985;DHT22;7588;62.368;25.902;2023-05-29T15:49:49;13.20;67.50
14985;DHT22;7588;62.368;25.902;2023-05-29T15:52:15;13.00;66.40
14985;DHT22;7588;62.368;25.902;2023-05-29T15:54:41;13.00;69.20
14985;DHT22;7588;62.368;25.902;2023-05-29T15:57:06;13.00;67.00
14985;DHT22;7588;62.368;25.902;2023-05-29T15:59:32;13.00;68.90
14985;DHT22;7588;62.368;25.902;2023-05-29T16:01:58;12.80;68.70
14985;DHT22;7588;62.368;25.902;2023-05-29T16:04:25;12.70;68.30
14985;DHT22;7588;62.368;25.902;2023-05-29T16:06:51;12.70;72.20
14985;DHT22;7588;62.368;25.902;2023-05-29T16:09:17;12.70;69.30